Avon, Iowa
Current Conditions -  °F | °C
As of 2:54 AM on Sunday 21 Dec 2014 (Local Time) from KDSM Reporting Station
Haze Haze  
Wind Chill: 32°   Ceiling: 900
Heat Index: 39°   Visibility: 6mi
Dew Point: 35°   Wind: 10mph
Humidity: 86%   Direction: 180°S
Pressure: 30.05"   Gusts: NA
Location:  41.4707°N, 93.4797°W
Report Text: KDSM 210854Z 18009KT 6SM BR OVC009 04/02 A3005 RMK AO2 SLP182 T00390017 58013
Loading
Personal Weather Stations






























Interactive Weather Map New forecast layout! Learn more

10-Day Weather Forecast

Advertisements
Track Severe Weather on mobile